createdAt,value
2018-07-08T00:01:53.101Z,10.45
2018-07-08T00:04:21.685Z,9.55
2018-07-08T00:06:54.469Z,11.78
2018-07-08T00:09:22.660Z,9.60
2018-07-08T00:11:50.974Z,15.60
2018-07-08T00:14:19.089Z,8.70
2018-07-08T00:16:47.595Z,6.55
2018-07-08T00:19:16.011Z,9.63
2018-07-08T00:21:44.129Z,10.23
2018-07-08T00:24:12.329Z,10.15
2018-07-08T00:26:40.758Z,11.88
2018-07-08T00:29:08.986Z,8.50
2018-07-08T00:31:37.829Z,15.65
2018-07-08T00:34:06.269Z,7.85
2018-07-08T00:36:35.038Z,10.82
2018-07-08T00:39:03.955Z,15.32
2018-07-08T00:41:32.335Z,8.63
2018-07-08T00:44:00.964Z,8.85
2018-07-08T00:46:29.599Z,17.83
2018-07-08T00:48:57.857Z,13.65
2018-07-08T00:51:26.140Z,9.28
2018-07-08T00:53:54.291Z,11.05
2018-07-08T00:56:22.603Z,16.42
2018-07-08T00:58:51.269Z,17.30
2018-07-08T01:01:19.646Z,15.32
2018-07-08T01:03:47.843Z,9.65
2018-07-08T01:06:15.997Z,15.90
2018-07-08T01:08:44.564Z,8.43
2018-07-08T01:11:13.271Z,12.15
2018-07-08T01:13:41.683Z,18.30
2018-07-08T01:16:09.897Z,17.52
2018-07-08T01:18:38.073Z,10.55
2018-07-08T01:21:06.497Z,8.83
2018-07-08T01:23:34.821Z,10.30
2018-07-08T01:26:07.034Z,11.00
2018-07-08T01:28:35.066Z,9.30
2018-07-08T01:31:03.403Z,11.80
2018-07-08T01:33:32.084Z,9.53
2018-07-08T01:36:00.415Z,13.10
2018-07-08T01:38:28.677Z,10.20
2018-07-08T01:40:57.359Z,11.70
2018-07-08T01:43:25.985Z,15.32
2018-07-08T01:45:54.472Z,8.85
2018-07-08T01:48:22.954Z,9.33
2018-07-08T01:50:51.824Z,12.33
2018-07-08T01:53:20.282Z,14.25
2018-07-08T01:55:48.742Z,7.58
2018-07-08T01:58:17.184Z,9.80
2018-07-08T02:00:45.567Z,16.67
2018-07-08T02:03:13.870Z,14.15
2018-07-08T02:05:42.495Z,10.95
2018-07-08T02:08:11.421Z,11.80
2018-07-08T02:10:39.433Z,6.45
2018-07-08T02:13:07.966Z,16.60
2018-07-08T02:15:36.397Z,13.77
2018-07-08T02:18:04.502Z,12.93
2018-07-08T02:20:33.522Z,10.00
2018-07-08T02:23:01.776Z,11.40
2018-07-08T02:25:30.174Z,8.23
2018-07-08T02:27:58.966Z,12.40
2018-07-08T02:30:27.113Z,9.90
2018-07-08T02:32:55.325Z,13.15
2018-07-08T02:35:23.708Z,12.88
2018-07-08T02:37:52.589Z,12.53
2018-07-08T02:40:21.029Z,13.30
2018-07-08T02:42:49.766Z,10.98
2018-07-08T02:45:18.010Z,11.95
2018-07-08T02:47:46.314Z,11.10
2018-07-08T02:50:14.782Z,11.73
2018-07-08T02:52:43.334Z,8.33
2018-07-08T02:55:11.415Z,9.55
2018-07-08T02:57:39.734Z,14.15
2018-07-08T03:00:07.894Z,13.95
2018-07-08T03:02:36.494Z,10.85
2018-07-08T03:05:04.693Z,14.23
2018-07-08T03:07:33.111Z,13.15
2018-07-08T03:10:01.346Z,10.40
2018-07-08T03:12:29.459Z,12.78
2018-07-08T03:14:57.865Z,16.42
2018-07-08T03:17:25.888Z,8.13
2018-07-08T03:19:54.538Z,12.78
2018-07-08T03:22:22.705Z,18.07
2018-07-08T03:24:50.992Z,13.35
2018-07-08T03:27:19.142Z,11.30
2018-07-08T03:29:47.537Z,12.82
2018-07-08T03:32:15.722Z,12.95
2018-07-08T03:34:44.064Z,15.28
2018-07-08T03:37:12.286Z,16.40
2018-07-08T03:39:40.421Z,8.43
2018-07-08T03:42:08.438Z,14.97
2018-07-08T03:44:37.087Z,4.83
2018-07-08T03:47:05.395Z,10.38
2018-07-08T03:49:33.590Z,8.43
2018-07-08T03:52:02.038Z,13.28
2018-07-08T03:54:32.066Z,16.27
2018-07-08T03:57:00.153Z,14.43
2018-07-08T03:59:28.669Z,14.50
2018-07-08T04:01:56.865Z,10.08
2018-07-08T04:04:25.314Z,11.38
2018-07-08T04:06:54.166Z,9.38
2018-07-08T04:09:22.822Z,11.48
2018-07-08T04:11:51.325Z,13.30
2018-07-08T04:14:19.877Z,12.70
2018-07-08T04:16:48.782Z,15.45
2018-07-08T04:19:17.037Z,14.58
2018-07-08T04:21:45.218Z,12.10
2018-07-08T04:24:13.921Z,17.82
2018-07-08T04:26:42.162Z,11.83
2018-07-08T04:29:10.835Z,15.53
2018-07-08T04:31:39.033Z,12.50
2018-07-08T04:34:07.110Z,10.05
2018-07-08T04:36:35.432Z,12.25
2018-07-08T04:39:04.278Z,17.70
2018-07-08T04:41:32.769Z,12.82
2018-07-08T04:44:00.995Z,14.57
2018-07-08T04:46:29.107Z,10.25
2018-07-08T04:48:57.401Z,11.38
2018-07-08T04:51:25.842Z,10.78
2018-07-08T04:53:53.869Z,11.95
2018-07-08T04:56:22.329Z,13.58
2018-07-08T04:58:51.559Z,7.50
2018-07-08T05:01:19.762Z,10.53
2018-07-08T05:03:48.612Z,11.28
2018-07-08T05:06:16.613Z,11.73
2018-07-08T05:08:45.054Z,6.72
2018-07-08T05:11:13.098Z,12.33
2018-07-08T05:13:41.456Z,12.73
2018-07-08T05:16:09.618Z,10.68
2018-07-08T05:18:37.781Z,9.15
2018-07-08T05:21:06.670Z,15.00
2018-07-08T05:23:34.791Z,17.17
2018-07-08T05:26:03.210Z,14.30
2018-07-08T05:28:31.679Z,10.85
2018-07-08T05:31:00.565Z,11.05
2018-07-08T05:33:28.902Z,13.40
2018-07-08T05:35:57.219Z,12.55
2018-07-08T05:38:25.471Z,15.08
2018-07-08T05:40:53.670Z,9.13
2018-07-08T05:43:22.154Z,14.58
2018-07-08T05:45:50.446Z,11.80
2018-07-08T05:48:18.470Z,15.83
2018-07-08T05:50:47.586Z,11.97
2018-07-08T05:53:16.293Z,9.98
2018-07-08T05:55:44.493Z,9.68
2018-07-08T05:58:12.735Z,15.35
2018-07-08T06:00:40.756Z,10.82
2018-07-08T06:03:09.070Z,6.53
2018-07-08T06:05:37.466Z,12.05
2018-07-08T06:08:05.694Z,11.08
2018-07-08T06:10:33.850Z,10.68
2018-07-08T06:13:02.602Z,12.78
2018-07-08T06:15:31.021Z,15.72
2018-07-08T06:17:59.134Z,9.93
2018-07-08T06:20:27.642Z,12.82
2018-07-08T06:22:56.108Z,13.17
2018-07-08T06:25:25.110Z,11.90
2018-07-08T06:27:53.470Z,12.43
2018-07-08T06:30:21.765Z,15.18
2018-07-08T06:32:50.148Z,13.75
2018-07-08T06:35:18.706Z,9.73
2018-07-08T06:37:47.010Z,13.40
2018-07-08T06:40:15.263Z,8.35
2018-07-08T06:42:43.409Z,10.00
2018-07-08T06:45:12.350Z,14.20
2018-07-08T06:47:40.818Z,8.63
2018-07-08T06:50:09.047Z,10.85
2018-07-08T06:52:37.489Z,11.80
2018-07-08T06:55:05.979Z,11.30
2018-07-08T06:57:34.378Z,13.85
2018-07-08T07:00:02.540Z,14.65
2018-07-08T07:02:30.758Z,11.53
2018-07-08T07:04:59.190Z,9.55
2018-07-08T07:07:27.528Z,14.63
2018-07-08T07:09:57.343Z,12.20
2018-07-08T07:12:25.628Z,13.70
2018-07-08T07:14:54.043Z,10.38
2018-07-08T07:17:22.125Z,12.53
2018-07-08T07:19:50.687Z,7.60
2018-07-08T07:22:19.609Z,11.55
2018-07-08T07:24:47.875Z,7.60
2018-07-08T07:27:15.888Z,9.15
2018-07-08T07:29:44.115Z,8.70
2018-07-08T07:32:12.467Z,7.20
2018-07-08T07:34:40.963Z,10.28
2018-07-08T07:37:09.341Z,9.73
2018-07-08T07:39:37.563Z,9.13
2018-07-08T07:42:06.004Z,11.63
2018-07-08T07:44:34.484Z,9.70
2018-07-08T07:47:03.170Z,8.73
2018-07-08T07:49:31.855Z,10.23
2018-07-08T07:52:00.392Z,11.40
2018-07-08T07:54:29.325Z,11.80
2018-07-08T07:56:57.378Z,13.18
2018-07-08T07:59:26.063Z,8.68
2018-07-08T08:01:54.144Z,13.88
2018-07-08T08:04:22.190Z,8.95
2018-07-08T08:06:50.913Z,12.53
2018-07-08T08:09:19.124Z,11.23
2018-07-08T08:11:47.710Z,11.27
2018-07-08T08:14:16.410Z,10.30
2018-07-08T08:16:44.472Z,11.48
2018-07-08T08:19:13.087Z,8.93
2018-07-08T08:21:41.251Z,7.23
2018-07-08T08:24:09.965Z,10.53
2018-07-08T08:26:38.626Z,9.38
2018-07-08T08:29:06.695Z,15.10
2018-07-08T08:31:34.913Z,9.50
2018-07-08T08:35:16.063Z,9.13
2018-07-08T08:37:46.662Z,7.92
2018-07-08T08:40:16.106Z,10.00
2018-07-08T08:42:44.185Z,8.80
2018-07-08T08:45:13.713Z,9.90
2018-07-08T08:47:41.910Z,15.78
2018-07-08T08:50:10.676Z,10.20
2018-07-08T08:52:38.900Z,9.23
2018-07-08T08:55:07.642Z,10.25
2018-07-08T08:57:35.813Z,9.00
2018-07-08T09:00:04.962Z,8.77
2018-07-08T09:02:33.089Z,11.80
2018-07-08T09:05:01.671Z,8.35
2018-07-08T09:07:29.973Z,9.77
2018-07-08T09:09:58.085Z,10.10
2018-07-08T09:12:26.291Z,11.07
2018-07-08T09:14:54.340Z,9.93
2018-07-08T09:17:22.837Z,9.05
2018-07-08T09:19:51.138Z,7.87
2018-07-08T09:22:20.095Z,12.93
2018-07-08T09:24:48.593Z,10.88
2018-07-08T09:27:17.297Z,9.60
2018-07-08T09:29:45.586Z,7.75
2018-07-08T09:32:14.066Z,7.87
2018-07-08T09:34:42.218Z,10.65
2018-07-08T09:37:10.245Z,9.55
2018-07-08T09:39:38.471Z,7.75
2018-07-08T09:42:06.543Z,8.30
2018-07-08T09:44:34.770Z,9.05
2018-07-08T09:47:02.921Z,6.87
2018-07-08T09:49:31.091Z,10.50
2018-07-08T09:51:59.268Z,8.18
2018-07-08T09:54:27.583Z,7.20
2018-07-08T09:56:55.875Z,11.93
2018-07-08T09:59:23.905Z,8.80
2018-07-08T10:02:04.389Z,7.67
2018-07-08T10:04:45.538Z,9.15
2018-07-08T10:07:15.143Z,10.40
2018-07-08T10:09:43.350Z,8.50
2018-07-08T10:12:11.982Z,7.03
2018-07-08T10:14:40.566Z,8.38
2018-07-08T10:17:10.242Z,8.15
2018-07-08T10:19:38.642Z,8.75
2018-07-08T10:22:06.735Z,8.20
2018-07-08T10:24:35.107Z,8.68
2018-07-08T10:27:09.110Z,8.60
2018-07-08T10:29:37.327Z,7.05
2018-07-08T10:32:06.077Z,6.90
2018-07-08T10:34:34.358Z,8.50
2018-07-08T10:37:02.557Z,10.53
2018-07-08T10:39:30.706Z,6.83
2018-07-08T10:41:59.201Z,6.90
2018-07-08T10:44:27.455Z,7.20
2018-07-08T10:46:55.670Z,15.55
2018-07-08T10:49:24.206Z,10.35
2018-07-08T10:51:52.782Z,11.53
2018-07-08T10:54:21.584Z,9.85
2018-07-08T10:56:49.759Z,6.92
2018-07-08T10:59:17.815Z,7.70
2018-07-08T11:01:45.898Z,7.15
2018-07-08T11:04:14.149Z,8.15
2018-07-08T11:06:42.645Z,7.37
2018-07-08T11:09:10.902Z,9.73
2018-07-08T11:11:39.122Z,7.27
2018-07-08T11:14:07.597Z,10.05
2018-07-08T11:16:35.880Z,8.68
2018-07-08T11:19:04.477Z,5.85
2018-07-08T11:21:33.045Z,7.62
2018-07-08T11:24:01.415Z,11.07
2018-07-08T11:26:29.974Z,8.90
2018-07-08T11:28:58.386Z,7.90
2018-07-08T11:31:26.766Z,10.87
2018-07-08T11:33:55.449Z,9.03
2018-07-08T11:36:23.531Z,7.47
2018-07-08T11:38:51.677Z,6.08
2018-07-08T11:41:19.709Z,8.35
2018-07-08T11:43:47.838Z,6.62
2018-07-08T11:46:16.049Z,7.50
2018-07-08T11:48:44.211Z,7.20
2018-07-08T11:51:12.266Z,7.10
2018-07-08T11:53:40.291Z,6.33
2018-07-08T11:56:08.613Z,6.00
2018-07-08T11:58:37.078Z,8.00
2018-07-08T12:01:05.181Z,8.95
2018-07-08T12:03:33.294Z,10.65
2018-07-08T12:06:01.395Z,6.67
2018-07-08T12:08:29.799Z,10.58
2018-07-08T12:10:58.441Z,6.35
2018-07-08T12:13:26.509Z,6.60
2018-07-08T12:15:54.620Z,4.83
2018-07-08T12:18:23.003Z,7.10
2018-07-08T12:20:51.141Z,5.37
2018-07-08T12:23:19.553Z,6.20
2018-07-08T12:25:48.013Z,7.62
2018-07-08T12:28:16.074Z,8.90
2018-07-08T12:30:44.102Z,7.75
2018-07-08T12:33:12.353Z,5.78
2018-07-08T12:35:40.498Z,6.10
2018-07-08T12:38:08.922Z,5.12
2018-07-08T12:40:37.156Z,8.40
2018-07-08T12:43:05.815Z,6.12
2018-07-08T12:45:34.259Z,7.70
2018-07-08T12:48:02.339Z,6.37
2018-07-08T12:50:30.830Z,7.83
2018-07-08T12:52:59.164Z,7.90
2018-07-08T12:55:27.953Z,5.97
2018-07-08T12:57:56.357Z,4.70
2018-07-08T13:00:24.378Z,7.40
2018-07-08T13:02:52.336Z,7.05
2018-07-08T13:05:20.335Z,7.20
2018-07-08T13:07:48.310Z,8.68
2018-07-08T13:10:17.195Z,5.85
2018-07-08T13:12:45.509Z,7.30
2018-07-08T13:15:14.078Z,6.22
2018-07-08T13:17:42.434Z,9.38
2018-07-08T13:20:10.749Z,5.90
2018-07-08T13:22:39.068Z,7.55
2018-07-08T13:25:07.408Z,9.93
2018-07-08T13:27:39.722Z,7.58
2018-07-08T13:30:17.708Z,5.37
2018-07-08T13:32:45.982Z,7.53
2018-07-08T13:35:14.473Z,6.25
2018-07-08T13:37:42.530Z,8.90
2018-07-08T13:40:11.394Z,7.45
2018-07-08T13:42:39.653Z,5.03
2018-07-08T13:45:07.697Z,6.90
2018-07-08T13:47:36.128Z,5.25
2018-07-08T13:50:04.774Z,4.87
2018-07-08T13:52:32.910Z,5.87
2018-07-08T13:55:00.965Z,6.53
2018-07-08T13:57:29.627Z,6.15
2018-07-08T13:59:58.010Z,10.32
2018-07-08T14:02:26.098Z,6.62
2018-07-08T14:04:54.427Z,6.78
2018-07-08T14:07:22.736Z,5.25
2018-07-08T14:09:50.797Z,6.95
2018-07-08T14:12:18.867Z,5.90
2018-07-08T14:14:47.518Z,7.92
2018-07-08T14:17:15.494Z,6.78
2018-07-08T14:19:43.574Z,5.80
2018-07-08T14:22:11.974Z,7.10
2018-07-08T14:24:40.289Z,7.27
2018-07-08T14:27:08.891Z,6.87
2018-07-08T14:29:36.921Z,8.05
2018-07-08T14:32:05.039Z,7.92
2018-07-08T14:34:33.076Z,5.10
2018-07-08T14:37:01.323Z,8.25
2018-07-08T14:39:29.663Z,11.15
2018-07-08T14:41:58.014Z,6.35
2018-07-08T14:44:26.392Z,5.22
2018-07-08T14:46:54.703Z,7.65
2018-07-08T14:49:23.254Z,7.83
2018-07-08T14:51:51.602Z,6.03
2018-07-08T14:54:20.213Z,7.30
2018-07-08T14:56:48.525Z,6.65
2018-07-08T14:59:16.875Z,8.50
2018-07-08T15:01:45.222Z,4.87
2018-07-08T15:04:13.307Z,5.42
2018-07-08T15:06:42.151Z,7.58
2018-07-08T15:09:12.232Z,7.17
2018-07-08T15:11:41.119Z,8.70
2018-07-08T15:14:09.709Z,6.55
2018-07-08T15:16:38.062Z,5.87
2018-07-08T15:19:06.735Z,7.85
2018-07-08T15:21:35.280Z,7.97
2018-07-08T15:24:04.245Z,7.07
2018-07-08T15:26:32.335Z,5.83
2018-07-08T15:29:01.030Z,6.12
2018-07-08T15:31:29.589Z,8.40
2018-07-08T15:33:57.998Z,7.70
2018-07-08T15:36:26.643Z,5.58
2018-07-08T15:38:55.038Z,8.33
2018-07-08T15:41:23.559Z,6.70
2018-07-08T15:43:52.515Z,6.90
2018-07-08T15:46:20.881Z,5.78
2018-07-08T15:48:49.263Z,6.70
2018-07-08T15:51:17.583Z,10.03
2018-07-08T15:53:45.887Z,7.30
2018-07-08T15:56:14.410Z,6.65
2018-07-08T15:58:42.527Z,6.75
2018-07-08T16:01:10.879Z,6.90
2018-07-08T16:03:38.934Z,7.35
2018-07-08T16:06:07.015Z,9.55
2018-07-08T16:08:35.695Z,6.78
2018-07-08T16:11:04.078Z,7.27
2018-07-08T16:13:32.729Z,6.40
2018-07-08T16:16:01.094Z,6.40
2018-07-08T16:18:29.547Z,7.08
2018-07-08T16:20:57.505Z,6.53
2018-07-08T16:23:25.761Z,8.08
2018-07-08T16:25:54.607Z,6.55
2018-07-08T16:28:27.233Z,7.58
2018-07-08T16:30:57.151Z,9.40
2018-07-08T16:33:25.275Z,6.10
2018-07-08T16:35:55.593Z,8.40
2018-07-08T16:38:23.762Z,5.67
2018-07-08T16:40:53.033Z,6.80
2018-07-08T16:43:21.104Z,7.45
2018-07-08T16:45:49.584Z,8.07
2018-07-08T16:48:17.951Z,7.00
2018-07-08T16:50:46.690Z,8.33
2018-07-08T16:53:15.019Z,9.38
2018-07-08T16:55:43.156Z,7.50
2018-07-08T16:58:11.157Z,6.53
2018-07-08T17:00:39.778Z,6.57
2018-07-08T17:03:07.846Z,11.85
2018-07-08T17:05:36.018Z,5.92
2018-07-08T17:08:04.370Z,5.70
2018-07-08T17:10:33.495Z,6.30
2018-07-08T17:13:01.606Z,7.00
2018-07-08T17:15:29.918Z,7.17
2018-07-08T17:17:58.293Z,8.50
2018-07-08T17:20:26.990Z,7.67
2018-07-08T17:22:55.780Z,6.75
2018-07-08T17:25:24.195Z,6.70
2018-07-08T17:27:52.634Z,6.10
2018-07-08T17:30:20.720Z,7.87
2018-07-08T17:32:49.548Z,8.90
2018-07-08T17:35:18.711Z,7.20
2018-07-08T17:37:46.969Z,6.85
2018-07-08T17:40:15.356Z,6.95
2018-07-08T17:42:43.728Z,6.33
2018-07-08T17:45:11.745Z,7.17
2018-07-08T17:47:40.224Z,5.58
2018-07-08T17:50:08.339Z,6.10
2018-07-08T17:52:36.738Z,7.40
2018-07-08T17:55:05.234Z,6.87
2018-07-08T17:57:33.781Z,6.30
2018-07-08T18:00:02.486Z,7.57
2018-07-08T18:02:30.837Z,6.00
2018-07-08T18:04:59.217Z,5.87
2018-07-08T18:07:27.513Z,6.60
2018-07-08T18:09:57.942Z,9.03
2018-07-08T18:12:26.817Z,6.67
2018-07-08T18:14:55.856Z,7.22
2018-07-08T18:17:24.403Z,6.80
2018-07-08T18:19:52.538Z,9.73
2018-07-08T18:22:20.931Z,6.85
2018-07-08T18:24:49.622Z,6.37
2018-07-08T18:27:17.874Z,7.97
2018-07-08T18:29:45.932Z,6.70
2018-07-08T18:32:14.386Z,6.10
2018-07-08T18:34:42.449Z,9.60
2018-07-08T18:37:10.944Z,7.17
2018-07-08T18:39:39.025Z,9.85
2018-07-08T18:42:07.139Z,16.20
2018-07-08T18:44:35.542Z,7.87
2018-07-08T18:47:04.245Z,6.45
2018-07-08T18:49:32.319Z,6.15
2018-07-08T18:52:00.461Z,7.83
2018-07-08T18:54:28.584Z,5.77
2018-07-08T18:56:56.919Z,5.47
2018-07-08T18:59:25.231Z,5.87
2018-07-08T19:01:53.363Z,6.07
2018-07-08T19:04:22.063Z,6.62
2018-07-08T19:06:50.074Z,8.20
2018-07-08T19:09:18.206Z,6.90
2018-07-08T19:11:46.327Z,6.95
2018-07-08T19:14:14.787Z,8.03
2018-07-08T19:16:42.977Z,9.03
2018-07-08T19:19:11.817Z,7.17
2018-07-08T19:21:40.117Z,9.85
2018-07-08T19:24:08.359Z,7.53
2018-07-08T19:26:36.794Z,7.90
2018-07-08T19:29:05.340Z,6.08
2018-07-08T19:31:33.517Z,6.40
2018-07-08T19:34:02.125Z,7.60
2018-07-08T19:36:30.602Z,7.90
2018-07-08T19:38:58.946Z,10.10
2018-07-08T19:41:26.951Z,8.20
2018-07-08T19:43:55.344Z,8.15
2018-07-08T19:46:23.818Z,7.12
2018-07-08T19:48:52.663Z,6.83
2018-07-08T19:51:20.883Z,7.42
2018-07-08T19:56:28.062Z,7.72
2018-07-08T19:58:56.597Z,5.43
2018-07-08T20:01:25.159Z,7.17
2018-07-08T20:03:53.477Z,6.67
2018-07-08T20:06:21.998Z,7.75
2018-07-08T20:08:50.210Z,7.97
2018-07-08T20:11:18.478Z,6.70
2018-07-08T20:13:46.691Z,6.40
2018-07-08T20:16:16.252Z,4.90
2018-07-08T20:18:45.403Z,5.97
2018-07-08T20:21:13.780Z,6.03
2018-07-08T20:23:42.415Z,7.75
2018-07-08T20:26:11.094Z,8.28
2018-07-08T20:28:39.790Z,6.25
2018-07-08T20:31:07.802Z,6.90
2018-07-08T20:33:35.950Z,6.40
2018-07-08T20:36:04.734Z,7.67
2018-07-08T20:38:33.358Z,6.15
2018-07-08T20:41:02.187Z,5.80
2018-07-08T20:43:30.652Z,7.58
2018-07-08T20:45:59.457Z,6.62
2018-07-08T20:48:27.853Z,5.53
2018-07-08T20:50:55.986Z,4.17
2018-07-08T20:53:24.393Z,5.15
2018-07-08T20:55:52.737Z,4.83
2018-07-08T20:58:21.580Z,5.05
2018-07-08T21:00:49.803Z,7.55
2018-07-08T21:03:18.334Z,6.00
2018-07-08T21:05:46.365Z,4.50
2018-07-08T21:08:14.769Z,6.17
2018-07-08T21:10:43.363Z,4.62
2018-07-08T21:13:12.245Z,4.92
2018-07-08T21:15:40.725Z,4.57
2018-07-08T21:18:09.133Z,11.10
2018-07-08T21:20:38.619Z,6.42
2018-07-08T21:23:07.043Z,9.43
2018-07-08T21:25:35.923Z,13.57
2018-07-08T21:28:04.130Z,6.00
2018-07-08T21:30:32.861Z,5.10
2018-07-08T21:33:00.877Z,5.40
2018-07-08T21:35:29.695Z,4.40
2018-07-08T21:37:57.729Z,3.12
2018-07-08T21:40:26.079Z,4.37
2018-07-08T21:42:54.323Z,7.70
2018-07-08T21:45:22.389Z,3.50
2018-07-08T21:47:50.991Z,4.42
2018-07-08T21:50:19.772Z,4.60
2018-07-08T21:52:47.982Z,4.85
2018-07-08T21:55:16.233Z,7.70
2018-07-08T21:57:44.851Z,3.20
2018-07-08T22:00:13.094Z,4.37
2018-07-08T22:02:41.465Z,5.15
2018-07-08T22:05:10.054Z,5.33
2018-07-08T22:07:43.425Z,3.33
2018-07-08T22:10:12.243Z,3.30
2018-07-08T22:12:40.432Z,5.83
2018-07-08T22:15:09.064Z,5.60
2018-07-08T22:17:37.418Z,3.50
2018-07-08T22:20:05.695Z,9.33
2018-07-08T22:22:33.897Z,4.42
2018-07-08T22:25:02.096Z,7.42
2018-07-08T22:27:30.130Z,4.20
2018-07-08T22:29:58.193Z,5.08
2018-07-08T22:32:26.755Z,5.65
2018-07-08T22:34:54.878Z,8.13
2018-07-08T22:37:23.250Z,4.87
2018-07-08T22:39:51.454Z,4.58
2018-07-08T22:42:19.810Z,3.30
2018-07-08T22:44:48.666Z,6.03
2018-07-08T22:47:16.837Z,6.87
2018-07-08T22:49:45.197Z,4.75
2018-07-08T22:52:13.345Z,2.70
2018-07-08T22:54:41.634Z,3.15
2018-07-08T22:57:09.854Z,5.53
2018-07-08T22:59:43.548Z,4.15
2018-07-08T23:02:17.263Z,4.30
2018-07-08T23:04:45.705Z,4.22
2018-07-08T23:07:14.281Z,4.53
2018-07-08T23:09:42.787Z,5.62
2018-07-08T23:12:11.556Z,7.05
2018-07-08T23:14:39.923Z,5.20
2018-07-08T23:17:08.429Z,5.62
2018-07-08T23:19:36.794Z,5.92
2018-07-08T23:22:05.791Z,6.97
2018-07-08T23:24:34.271Z,3.83
2018-07-08T23:27:02.311Z,2.92
2018-07-08T23:29:30.522Z,3.50
2018-07-08T23:31:58.605Z,4.53
2018-07-08T23:34:26.967Z,5.95
2018-07-08T23:36:55.450Z,5.33
2018-07-08T23:39:23.530Z,9.13
2018-07-08T23:41:51.541Z,3.20
2018-07-08T23:44:20.103Z,9.03
2018-07-08T23:46:48.737Z,3.45
2018-07-08T23:49:16.834Z,8.65
2018-07-08T23:51:45.726Z,5.22
2018-07-08T23:54:14.003Z,3.87
2018-07-08T23:56:42.989Z,3.90
2018-07-08T23:59:11.277Z,6.17
